CA-0064 weather

CLOSED Buckingham Airport
Quebec, Canada

Public forecast

Using degrees Celsius for public forecast. Weather courtesy of forecast.io.

Closest aviation weather report (METAR) to Buckingham Airport

Closest report is Ottawa / Gatineau Airport, 9.6 nm (17.8 km) SW. Retrieved 2020/05/30 18:00 UTC (32 minutes ago):

CYND 301800Z 22004KT 170V290 15SM FEW036 BKN072 BKN220 19/12 A2982 RMK CU2AC4CI1 CI TR SLP100 DENSITY ALT 900FT

Closest aviation forecast (TAF) to Buckingham Airport

Closest forecast is Ottawa / Gatineau Airport, 9.6 nm (17.8 km) SW. Retrieved 2020/05/30 18:00 UTC (32 minutes ago):

TAF CYND 301738Z 3018/3101 23007KT P6SM FEW030 SCT080 TEMPO 3018/3021 BKN080 FM302100 25010KT P6SM BKN030 TEMPO 3021/3023 3SM SHRA BR BKN015 BKN030 FM302300 32012G22KT P6SM BKN020 TEMPO 3023/3101 BKN030 RMK NXT FCST WILL BE ISSUED AT 311245Z